createdAt,value
2017-06-23T00:00:51.027Z,14.10
2017-06-23T00:03:17.974Z,14.30
2017-06-23T00:05:44.613Z,14.87
2017-06-23T00:08:12.315Z,14.63
2017-06-23T00:10:39.935Z,14.93
2017-06-23T00:13:06.572Z,14.50
2017-06-23T00:15:33.389Z,14.30
2017-06-23T00:18:00.024Z,14.83
2017-06-23T00:20:27.210Z,14.97
2017-06-23T00:22:53.888Z,15.70
2017-06-23T00:25:21.021Z,15.77
2017-06-23T00:27:47.568Z,15.27
2017-06-23T00:30:15.089Z,15.00
2017-06-23T00:32:42.522Z,14.60
2017-06-23T00:35:09.181Z,14.50
2017-06-23T00:37:35.818Z,14.50
2017-06-23T00:40:02.458Z,15.73
2017-06-23T00:42:29.094Z,14.60
2017-06-23T00:44:55.733Z,14.40
2017-06-23T00:47:22.971Z,14.23
2017-06-23T00:49:49.600Z,14.23
2017-06-23T00:52:16.232Z,14.07
2017-06-23T00:54:42.944Z,13.10
2017-06-23T00:57:09.638Z,14.50
2017-06-23T00:59:36.277Z,12.70
2017-06-23T01:02:02.794Z,12.40
2017-06-23T01:04:29.529Z,12.23
2017-06-23T01:06:56.820Z,11.43
2017-06-23T01:09:23.619Z,12.70
2017-06-23T01:12:05.236Z,12.23
2017-06-23T01:14:31.846Z,12.00
2017-06-23T01:16:59.108Z,11.03
2017-06-23T01:19:26.217Z,11.30
2017-06-23T01:21:53.016Z,11.47
2017-06-23T01:24:19.629Z,11.37
2017-06-23T01:26:46.293Z,11.60
2017-06-23T01:29:13.546Z,11.10
2017-06-23T01:31:40.157Z,11.10
2017-06-23T01:34:07.408Z,11.00
2017-06-23T01:36:34.073Z,11.97
2017-06-23T01:39:01.339Z,11.33
2017-06-23T01:41:28.781Z,10.70
2017-06-23T01:43:55.419Z,12.00
2017-06-23T01:46:22.665Z,11.40
2017-06-23T01:48:49.284Z,11.30
2017-06-23T01:51:16.419Z,11.10
2017-06-23T01:53:43.200Z,11.10
2017-06-23T01:56:10.351Z,11.23
2017-06-23T01:58:37.093Z,10.70
2017-06-23T02:01:04.344Z,10.73
2017-06-23T02:03:30.981Z,11.03
2017-06-23T02:05:57.723Z,10.63
2017-06-23T02:08:24.332Z,11.27
2017-06-23T02:10:50.997Z,11.10
2017-06-23T02:13:17.599Z,11.50
2017-06-23T02:15:44.271Z,10.80
2017-06-23T02:18:11.014Z,11.77
2017-06-23T02:20:37.651Z,11.67
2017-06-23T02:23:05.488Z,11.87
2017-06-23T02:25:32.130Z,11.13
2017-06-23T02:27:59.614Z,11.50
2017-06-23T02:30:26.252Z,12.43
2017-06-23T02:32:55.795Z,11.10
2017-06-23T02:35:23.622Z,11.70
2017-06-23T02:37:51.611Z,11.30
2017-06-23T02:40:33.046Z,12.13
2017-06-23T02:43:14.337Z,11.27
2017-06-23T02:45:56.699Z,12.00
2017-06-23T02:48:38.383Z,12.17
2017-06-23T02:51:19.766Z,10.67
2017-06-23T02:54:01.210Z,12.40
2017-06-23T02:56:42.536Z,11.83
2017-06-23T02:59:23.975Z,11.73
2017-06-23T03:01:50.731Z,12.07
2017-06-23T03:04:32.374Z,11.80
2017-06-23T03:07:14.013Z,12.13
2017-06-23T03:09:55.527Z,11.63
2017-06-23T03:12:37.564Z,11.90
2017-06-23T03:15:18.997Z,12.43
2017-06-23T03:18:00.986Z,12.60
2017-06-23T03:20:42.455Z,12.00
2017-06-23T03:23:09.102Z,12.10
2017-06-23T03:25:35.739Z,12.53
2017-06-23T03:28:02.457Z,12.37
2017-06-23T03:30:29.094Z,13.17
2017-06-23T03:32:56.613Z,12.37
2017-06-23T03:35:23.417Z,13.60
2017-06-23T03:37:50.029Z,12.83
2017-06-23T03:40:16.693Z,12.10
2017-06-23T03:42:43.305Z,13.13
2017-06-23T03:45:09.941Z,13.60
2017-06-23T03:47:36.476Z,12.90
2017-06-23T03:50:03.216Z,13.20
2017-06-23T03:52:29.882Z,13.47
2017-06-23T03:54:56.493Z,13.00
2017-06-23T03:57:23.158Z,13.00
2017-06-23T04:00:10.225Z,13.80
2017-06-23T04:02:36.913Z,14.17
2017-06-23T04:05:04.685Z,13.40
2017-06-23T04:07:31.419Z,14.03
2017-06-23T04:09:58.032Z,13.00
2017-06-23T04:12:24.695Z,13.70
2017-06-23T04:14:52.189Z,11.63
2017-06-23T04:17:19.609Z,12.90
2017-06-23T04:19:46.222Z,13.93
2017-06-23T04:22:12.884Z,13.63
2017-06-23T04:24:39.733Z,13.70
2017-06-23T04:27:07.183Z,12.47
2017-06-23T04:29:35.054Z,13.00
2017-06-23T04:32:01.689Z,12.57
2017-06-23T04:34:28.299Z,12.70
2017-06-23T04:36:56.807Z,12.60
2017-06-23T04:39:24.468Z,11.60
2017-06-23T04:41:51.081Z,13.10
2017-06-23T04:44:18.380Z,12.80
2017-06-23T04:46:45.795Z,13.20
2017-06-23T04:49:12.428Z,13.00
2017-06-23T04:51:39.091Z,14.20
2017-06-23T04:54:05.730Z,13.50
2017-06-23T04:56:32.367Z,13.10
2017-06-23T04:58:59.001Z,13.40
2017-06-23T05:01:25.617Z,13.40
2017-06-23T05:03:52.299Z,13.60
2017-06-23T05:06:19.738Z,13.60
2017-06-23T05:08:46.782Z,12.83
2017-06-23T05:11:13.732Z,13.73
2017-06-23T05:13:40.368Z,13.50
2017-06-23T05:16:07.006Z,13.40
2017-06-23T05:18:33.621Z,12.73
2017-06-23T05:21:00.881Z,13.33
2017-06-23T05:23:27.636Z,13.40
2017-06-23T05:25:54.274Z,14.07
2017-06-23T05:28:20.913Z,13.23
2017-06-23T05:30:47.423Z,13.73
2017-06-23T05:33:14.129Z,13.73
2017-06-23T05:35:42.064Z,14.00
2017-06-23T05:38:09.717Z,13.43
2017-06-23T05:40:36.458Z,12.93
2017-06-23T05:43:03.069Z,12.00
2017-06-23T05:45:29.704Z,13.13
2017-06-23T05:47:56.346Z,12.77
2017-06-23T05:50:23.008Z,12.90
2017-06-23T05:52:50.145Z,13.20
2017-06-23T05:55:16.898Z,12.53
2017-06-23T05:57:43.537Z,12.77
2017-06-23T06:00:10.153Z,12.70
2017-06-23T06:02:36.812Z,12.57
2017-06-23T06:05:03.425Z,13.00
2017-06-23T06:07:30.059Z,12.93
2017-06-23T06:09:56.725Z,12.10
2017-06-23T06:12:23.365Z,12.67
2017-06-23T06:15:05.469Z,12.63
2017-06-23T06:17:32.209Z,13.00
2017-06-23T06:19:58.724Z,12.50
2017-06-23T06:22:25.482Z,13.80
2017-06-23T06:24:52.097Z,24.37
2017-06-23T06:27:18.728Z,13.30
2017-06-23T06:29:46.011Z,12.43
2017-06-23T06:32:12.646Z,18.37
2017-06-23T06:34:39.285Z,18.90
2017-06-23T06:37:06.488Z,13.57
2017-06-23T06:39:33.174Z,12.73
2017-06-23T06:41:59.812Z,12.00
2017-06-23T06:44:26.450Z,13.30
2017-06-23T06:46:53.088Z,12.70
2017-06-23T06:49:19.707Z,14.00
2017-06-23T06:51:46.364Z,13.30
2017-06-23T06:54:13.002Z,14.37
2017-06-23T06:56:39.615Z,12.97
2017-06-23T06:59:06.224Z,13.80
2017-06-23T07:01:32.998Z,11.60
2017-06-23T07:03:59.657Z,12.17
2017-06-23T07:06:26.782Z,11.80
2017-06-23T07:08:53.422Z,12.27
2017-06-23T07:11:20.084Z,12.43
2017-06-23T07:13:47.337Z,11.40
2017-06-23T07:16:13.944Z,10.97
2017-06-23T07:18:40.611Z,10.73
2017-06-23T07:21:07.248Z,11.30
2017-06-23T07:23:33.860Z,11.80
2017-06-23T07:26:00.496Z,11.83
2017-06-23T07:28:27.163Z,11.07
2017-06-23T07:30:53.804Z,11.73
2017-06-23T07:33:20.414Z,10.20
2017-06-23T07:35:47.075Z,10.67
2017-06-23T07:38:13.714Z,10.60
2017-06-23T07:40:40.324Z,11.27
2017-06-23T07:43:06.990Z,10.23
2017-06-23T07:45:33.600Z,9.83
2017-06-23T07:48:00.192Z,10.40
2017-06-23T07:50:27.361Z,10.20
2017-06-23T07:52:54.155Z,10.07
2017-06-23T07:55:20.860Z,10.00
2017-06-23T07:57:47.637Z,10.00
2017-06-23T08:00:14.286Z,10.83
2017-06-23T08:02:41.708Z,10.30
2017-06-23T08:05:08.371Z,10.30
2017-06-23T08:07:35.417Z,9.90
2017-06-23T08:10:02.129Z,10.80
2017-06-23T08:12:28.896Z,10.47
2017-06-23T08:14:55.536Z,9.43
2017-06-23T08:17:22.173Z,9.50
2017-06-23T08:19:48.785Z,9.70
2017-06-23T08:22:15.448Z,10.00
2017-06-23T08:24:42.578Z,10.30
2017-06-23T08:27:09.318Z,9.93
2017-06-23T08:29:37.214Z,9.17
2017-06-23T08:32:04.662Z,9.33
2017-06-23T08:34:32.102Z,8.10
2017-06-23T08:36:58.761Z,9.40
2017-06-23T08:39:26.189Z,9.63
2017-06-23T08:41:52.855Z,9.50
2017-06-23T08:44:19.953Z,8.73
2017-06-23T08:46:46.642Z,10.17
2017-06-23T08:49:14.340Z,9.03
2017-06-23T08:51:41.146Z,9.60
2017-06-23T08:54:07.784Z,8.17
2017-06-23T08:56:35.071Z,8.57
2017-06-23T08:59:01.880Z,8.17
2017-06-23T09:01:28.523Z,8.30
2017-06-23T09:03:55.360Z,7.70
2017-06-23T09:06:22.624Z,7.77
2017-06-23T09:08:50.040Z,7.40
2017-06-23T09:11:16.706Z,7.20
2017-06-23T09:13:43.345Z,7.73
2017-06-23T09:16:09.962Z,7.73
2017-06-23T09:18:36.620Z,7.20
2017-06-23T09:21:03.237Z,7.73
2017-06-23T09:23:29.900Z,7.60
2017-06-23T09:25:57.357Z,7.30
2017-06-23T09:28:23.995Z,7.50
2017-06-23T09:30:50.609Z,8.20
2017-06-23T09:33:17.248Z,7.20
2017-06-23T09:35:44.526Z,8.20
2017-06-23T09:38:11.160Z,7.57
2017-06-23T09:40:37.731Z,7.20
2017-06-23T09:43:04.746Z,7.37
2017-06-23T09:45:31.382Z,6.70
2017-06-23T09:47:59.203Z,6.90
2017-06-23T09:50:25.886Z,6.97
2017-06-23T09:52:53.056Z,6.30
2017-06-23T09:55:19.776Z,6.63
2017-06-23T09:57:46.516Z,6.10
2017-06-23T10:00:13.332Z,6.50
2017-06-23T10:02:40.442Z,6.90
2017-06-23T10:05:07.145Z,6.27
2017-06-23T10:07:33.784Z,6.37
2017-06-23T10:10:00.422Z,7.17
2017-06-23T10:12:27.059Z,6.70
2017-06-23T10:14:53.669Z,6.37
2017-06-23T10:17:20.335Z,5.80
2017-06-23T10:19:47.657Z,6.10
2017-06-23T10:22:14.328Z,6.10
2017-06-23T10:24:41.990Z,5.03
2017-06-23T10:27:09.483Z,6.17
2017-06-23T10:29:36.289Z,5.93
2017-06-23T10:32:03.105Z,8.60
2017-06-23T10:34:29.769Z,6.07
2017-06-23T10:36:56.407Z,5.03
2017-06-23T10:39:23.025Z,5.40
2017-06-23T10:41:49.703Z,4.83
2017-06-23T10:44:16.423Z,5.07
2017-06-23T10:46:43.063Z,4.77
2017-06-23T10:49:09.674Z,5.10
2017-06-23T10:51:36.416Z,5.80
2017-06-23T10:54:03.623Z,5.90
2017-06-23T10:56:30.307Z,6.10
2017-06-23T10:58:56.967Z,6.00
2017-06-23T11:01:23.707Z,6.37
2017-06-23T11:03:50.463Z,6.03
2017-06-23T11:06:19.132Z,6.17
2017-06-23T11:08:45.787Z,6.30
2017-06-23T11:11:14.131Z,6.20
2017-06-23T11:13:41.224Z,6.53
2017-06-23T11:16:07.905Z,6.13
2017-06-23T11:18:34.566Z,6.00
2017-06-23T11:21:01.228Z,6.10
2017-06-23T11:23:29.405Z,6.00
2017-06-23T11:25:56.119Z,6.07
2017-06-23T11:28:22.720Z,5.93
2017-06-23T11:30:49.418Z,6.07
2017-06-23T11:33:16.835Z,6.47
2017-06-23T11:35:43.513Z,6.00
2017-06-23T11:38:11.466Z,6.10
2017-06-23T11:40:38.200Z,6.37
2017-06-23T11:43:04.861Z,6.30
2017-06-23T11:45:32.297Z,7.07
2017-06-23T11:47:58.928Z,6.30
2017-06-23T11:50:26.812Z,7.23
2017-06-23T11:52:53.461Z,6.10
2017-06-23T11:55:21.942Z,5.90
2017-06-23T11:57:49.817Z,6.10
2017-06-23T12:00:16.453Z,6.67
2017-06-23T12:02:43.903Z,6.50
2017-06-23T12:05:11.366Z,5.97
2017-06-23T12:07:38.818Z,5.70
2017-06-23T12:10:06.276Z,6.93
2017-06-23T12:12:33.735Z,6.40
2017-06-23T12:15:01.190Z,6.20
2017-06-23T12:17:28.647Z,6.47
2017-06-23T12:19:56.082Z,6.93
2017-06-23T12:22:22.746Z,6.97
2017-06-23T12:24:51.106Z,6.80
2017-06-23T12:27:17.861Z,5.43
2017-06-23T12:29:45.318Z,6.37
2017-06-23T12:32:12.759Z,6.20
2017-06-23T12:34:39.413Z,7.00
2017-06-23T12:37:06.843Z,6.67
2017-06-23T12:39:34.122Z,6.17
2017-06-23T12:42:01.520Z,6.40
2017-06-23T12:44:28.219Z,6.37
2017-06-23T12:46:54.957Z,6.70
2017-06-23T12:49:22.387Z,6.90
2017-06-23T12:51:49.053Z,6.73
2017-06-23T12:54:17.708Z,6.23
2017-06-23T12:56:44.376Z,6.90
2017-06-23T12:59:11.835Z,7.53
2017-06-23T13:01:39.270Z,6.80
2017-06-23T13:04:06.442Z,6.60
2017-06-23T13:06:33.181Z,7.20
2017-06-23T13:09:00.613Z,7.27
2017-06-23T13:11:27.892Z,6.80
2017-06-23T13:13:55.284Z,6.90
2017-06-23T13:16:23.048Z,6.73
2017-06-23T13:18:49.725Z,6.97
2017-06-23T13:21:16.392Z,6.90
2017-06-23T13:23:43.845Z,7.43
2017-06-23T13:26:12.208Z,7.50
2017-06-23T13:28:38.964Z,7.47
2017-06-23T13:31:06.421Z,7.07
2017-06-23T13:33:33.824Z,7.30
2017-06-23T13:36:00.517Z,7.00
2017-06-23T13:38:27.949Z,7.30
2017-06-23T13:40:54.586Z,7.23
2017-06-23T13:43:21.251Z,7.07
2017-06-23T13:45:48.682Z,7.10
2017-06-23T13:48:15.345Z,7.07
2017-06-23T13:50:42.802Z,7.20
2017-06-23T13:53:10.268Z,6.93
2017-06-23T13:55:37.690Z,6.60
2017-06-23T13:58:04.344Z,6.80
2017-06-23T14:00:32.910Z,7.17
2017-06-23T14:02:59.860Z,6.87
2017-06-23T14:05:26.568Z,7.27
2017-06-23T14:07:54.082Z,7.23
2017-06-23T14:10:21.723Z,7.57
2017-06-23T14:12:48.340Z,7.40
2017-06-23T14:15:15.838Z,7.37
2017-06-23T14:17:44.013Z,7.03
2017-06-23T14:20:10.753Z,7.10
2017-06-23T14:22:37.491Z,6.83
2017-06-23T14:25:05.422Z,6.50
2017-06-23T14:27:32.408Z,6.70
2017-06-23T14:30:04.721Z,6.90
2017-06-23T14:32:33.888Z,6.27
2017-06-23T14:35:00.616Z,6.47
2017-06-23T14:37:27.211Z,6.20
2017-06-23T14:39:53.891Z,5.80
2017-06-23T14:42:21.553Z,6.03
2017-06-23T14:44:49.011Z,6.07
2017-06-23T14:47:17.045Z,6.57
2017-06-23T14:49:44.339Z,6.03
2017-06-23T14:52:12.927Z,5.90
2017-06-23T14:54:39.658Z,5.60
2017-06-23T14:57:07.115Z,5.20
2017-06-23T14:59:34.552Z,5.00
2017-06-23T15:02:02.081Z,5.17
2017-06-23T15:04:28.873Z,5.10
2017-06-23T15:06:56.329Z,5.23
2017-06-23T15:09:23.763Z,5.27
2017-06-23T15:11:50.424Z,5.27
2017-06-23T15:14:17.815Z,4.90
2017-06-23T15:16:45.136Z,5.30
2017-06-23T15:19:12.565Z,5.47
2017-06-23T15:21:39.230Z,5.27
2017-06-23T15:24:06.662Z,5.43
2017-06-23T15:26:33.283Z,5.10
2017-06-23T15:28:59.936Z,5.13
2017-06-23T15:31:26.601Z,5.17
2017-06-23T15:33:53.339Z,4.57
2017-06-23T15:36:21.637Z,4.43
2017-06-23T15:38:48.340Z,4.00
2017-06-23T15:41:15.097Z,4.67
2017-06-23T15:43:42.556Z,4.33
2017-06-23T15:46:09.983Z,4.70
2017-06-23T15:48:37.191Z,4.40
2017-06-23T15:51:03.902Z,4.90
2017-06-23T15:53:31.239Z,4.60
2017-06-23T15:55:57.998Z,4.70
2017-06-23T15:58:25.388Z,4.80
2017-06-23T16:00:52.091Z,4.50
2017-06-23T16:03:18.811Z,4.40
2017-06-23T16:05:45.445Z,4.37
2017-06-23T16:08:12.080Z,4.60
2017-06-23T16:10:39.292Z,4.60
2017-06-23T16:13:05.999Z,4.30
2017-06-23T16:15:34.276Z,4.20
2017-06-23T16:18:01.709Z,4.30
2017-06-23T16:20:28.371Z,4.00
2017-06-23T16:22:55.829Z,4.33
2017-06-23T16:25:23.284Z,4.10
2017-06-23T16:27:50.741Z,3.93
2017-06-23T16:30:17.487Z,4.30
2017-06-23T16:32:44.222Z,4.33
2017-06-23T16:35:11.679Z,4.33
2017-06-23T16:37:39.139Z,4.40
2017-06-23T16:40:05.776Z,4.90
2017-06-23T16:42:33.232Z,4.63
2017-06-23T16:45:00.628Z,4.33
2017-06-23T16:47:27.327Z,4.43
2017-06-23T16:49:54.783Z,4.97
2017-06-23T16:52:22.762Z,4.80
2017-06-23T16:54:50.184Z,4.40
2017-06-23T16:57:16.821Z,4.30
2017-06-23T16:59:43.464Z,4.07
2017-06-23T17:02:10.763Z,4.73
2017-06-23T17:04:37.452Z,4.27
2017-06-23T17:07:04.117Z,4.20
2017-06-23T17:09:31.575Z,4.17
2017-06-23T17:11:59.239Z,4.40
2017-06-23T17:14:27.310Z,4.43
2017-06-23T17:16:53.921Z,4.70
2017-06-23T17:19:20.559Z,4.10
2017-06-23T17:21:47.718Z,3.70
2017-06-23T17:24:15.590Z,4.10
2017-06-23T17:26:42.172Z,3.83
2017-06-23T17:29:08.852Z,4.53
2017-06-23T17:31:35.468Z,4.37
2017-06-23T17:34:02.152Z,4.10
2017-06-23T17:36:29.609Z,4.27
2017-06-23T17:38:57.272Z,3.73
2017-06-23T17:41:24.729Z,3.80
2017-06-23T17:43:52.185Z,3.90
2017-06-23T17:46:20.114Z,4.00
2017-06-23T17:48:46.895Z,3.90
2017-06-23T17:51:14.974Z,3.90
2017-06-23T17:53:42.423Z,3.97
2017-06-23T17:56:09.857Z,4.17
2017-06-23T17:58:36.518Z,4.20
2017-06-23T18:01:03.948Z,4.53
2017-06-23T18:03:30.806Z,3.77
2017-06-23T18:05:58.247Z,3.90
2017-06-23T18:08:24.914Z,4.27
2017-06-23T18:10:52.371Z,4.17
2017-06-23T18:13:19.827Z,4.67
2017-06-23T18:15:47.863Z,4.17
2017-06-23T18:18:14.513Z,4.40
2017-06-23T18:20:41.124Z,4.53
2017-06-23T18:23:07.813Z,4.70
2017-06-23T18:25:35.258Z,5.47
2017-06-23T18:28:01.909Z,3.80
2017-06-23T18:30:29.323Z,4.90
2017-06-23T18:32:55.988Z,4.90
2017-06-23T18:35:22.720Z,5.20
2017-06-23T18:37:49.485Z,5.53
2017-06-23T18:40:16.808Z,4.83
2017-06-23T18:42:43.580Z,4.70
2017-06-23T18:45:11.038Z,5.17
2017-06-23T18:47:37.593Z,6.30
2017-06-23T18:50:04.809Z,6.73
2017-06-23T18:52:31.566Z,5.83
2017-06-23T18:54:59.638Z,5.20
2017-06-23T18:57:27.094Z,5.50
2017-06-23T18:59:54.552Z,5.07
2017-06-23T19:02:22.580Z,6.27
2017-06-23T19:04:49.261Z,5.10
2017-06-23T19:07:16.670Z,5.30
2017-06-23T19:09:43.907Z,5.23
2017-06-23T19:12:10.609Z,5.43
2017-06-23T19:14:38.065Z,6.50
2017-06-23T19:17:05.523Z,5.40
2017-06-23T19:19:32.956Z,4.97
2017-06-23T19:21:59.978Z,5.57
2017-06-23T19:24:26.665Z,5.20
2017-06-23T19:26:54.122Z,5.03
2017-06-23T19:29:20.697Z,5.20
2017-06-23T19:31:47.372Z,4.90
2017-06-23T19:34:14.012Z,4.90
2017-06-23T19:36:41.495Z,4.83
2017-06-23T19:39:08.916Z,5.70
2017-06-23T19:41:35.591Z,7.60
2017-06-23T19:44:05.092Z,6.23
2017-06-23T19:46:31.895Z,4.60
2017-06-23T19:48:58.568Z,4.70
2017-06-23T19:51:25.523Z,4.70
2017-06-23T19:53:52.976Z,4.70
2017-06-23T19:56:20.434Z,5.00
2017-06-23T19:58:48.317Z,4.50
2017-06-23T20:01:15.981Z,4.60
2017-06-23T20:03:42.804Z,4.50
2017-06-23T20:06:09.977Z,4.63
2017-06-23T20:08:36.731Z,4.40
2017-06-23T20:11:03.439Z,4.50
2017-06-23T20:13:31.715Z,4.50
2017-06-23T20:15:59.544Z,3.87
2017-06-23T20:18:26.217Z,3.93
2017-06-23T20:20:54.540Z,5.00
2017-06-23T20:23:21.336Z,3.83
2017-06-23T20:25:49.612Z,4.03
2017-06-23T20:28:17.274Z,4.67
2017-06-23T20:30:44.731Z,4.63
2017-06-23T20:33:12.492Z,4.70
2017-06-23T20:35:39.953Z,4.60
2017-06-23T20:38:07.468Z,4.23
2017-06-23T20:40:34.151Z,4.70
2017-06-23T20:43:01.483Z,4.30
2017-06-23T20:45:28.425Z,4.60
2017-06-23T20:47:55.060Z,4.27
2017-06-23T20:50:21.932Z,4.27
2017-06-23T20:52:48.569Z,7.53
2017-06-23T20:55:16.529Z,4.80
2017-06-23T20:57:43.149Z,5.30
2017-06-23T21:00:10.838Z,4.63
2017-06-23T21:02:38.295Z,4.30
2017-06-23T21:05:05.636Z,4.97
2017-06-23T21:07:32.367Z,4.40
2017-06-23T21:09:59.028Z,4.60
2017-06-23T21:12:26.486Z,4.33
2017-06-23T21:14:54.558Z,4.77
2017-06-23T21:17:22.013Z,4.83
2017-06-23T21:19:50.016Z,4.90
2017-06-23T21:22:16.668Z,4.83
2017-06-23T21:24:43.361Z,4.53
2017-06-23T21:27:11.271Z,4.60
2017-06-23T21:29:38.071Z,4.30
2017-06-23T21:32:05.528Z,10.37
2017-06-23T21:34:32.947Z,5.30
2017-06-23T21:37:00.239Z,4.80
2017-06-23T21:39:27.695Z,4.77
2017-06-23T21:41:56.186Z,4.50
2017-06-23T21:44:23.633Z,5.20
2017-06-23T21:46:51.091Z,4.83
2017-06-23T21:49:18.512Z,4.40
2017-06-23T21:51:45.067Z,5.23
2017-06-23T21:54:11.899Z,4.67
2017-06-23T21:56:39.389Z,5.03
2017-06-23T21:59:05.972Z,4.90
2017-06-23T22:01:33.266Z,4.80
2017-06-23T22:04:00.673Z,4.93
2017-06-23T22:06:27.559Z,7.50
2017-06-23T22:08:54.881Z,5.20
2017-06-23T22:11:21.688Z,4.97
2017-06-23T22:13:48.456Z,4.63
2017-06-23T22:16:16.098Z,5.03
2017-06-23T22:18:42.812Z,4.53
2017-06-23T22:21:10.472Z,4.90
2017-06-23T22:23:38.695Z,5.03
2017-06-23T22:26:05.361Z,4.80
2017-06-23T22:28:32.012Z,5.03
2017-06-23T22:30:58.598Z,4.87
2017-06-23T22:33:25.291Z,4.67
2017-06-23T22:35:54.428Z,4.43
2017-06-23T22:38:22.776Z,4.40
2017-06-23T22:40:50.160Z,4.67
2017-06-23T22:43:16.857Z,4.80
2017-06-23T22:45:43.425Z,4.33
2017-06-23T22:48:11.076Z,4.93
2017-06-23T22:50:37.728Z,5.57
2017-06-23T22:53:04.813Z,4.80
2017-06-23T22:55:31.488Z,4.37
2017-06-23T22:58:00.060Z,4.50
2017-06-23T23:00:26.781Z,4.40
2017-06-23T23:02:54.761Z,4.40
2017-06-23T23:05:22.008Z,4.80
2017-06-23T23:07:49.700Z,4.53
2017-06-23T23:10:16.413Z,4.13
2017-06-23T23:12:43.639Z,4.20
2017-06-23T23:15:10.507Z,4.40
2017-06-23T23:17:37.145Z,4.80
2017-06-23T23:20:03.771Z,4.33
2017-06-23T23:22:30.551Z,4.43
2017-06-23T23:24:58.007Z,4.40
2017-06-23T23:27:25.466Z,3.73
2017-06-23T23:29:52.922Z,3.80
2017-06-23T23:32:19.544Z,4.50
2017-06-23T23:34:46.240Z,3.77
2017-06-23T23:37:12.940Z,4.20
2017-06-23T23:39:39.575Z,4.27
2017-06-23T23:42:07.032Z,3.97
2017-06-23T23:44:34.464Z,4.03
2017-06-23T23:47:01.127Z,4.20
2017-06-23T23:49:28.590Z,3.50
2017-06-23T23:51:55.172Z,3.97
2017-06-23T23:54:21.736Z,3.80
2017-06-23T23:56:48.498Z,3.77
2017-06-23T23:59:15.927Z,4.00
